sensor_id;sensor_type;location;lat;lon;timestamp;P1;durP1;ratioP1;P2;durP2;ratioP2
57311;SDS011;43154;50.966;18.316;2023-04-19T00:02:14;27.30;;;13.50;;
57311;SDS011;43154;50.966;18.316;2023-04-19T00:07:46;29.00;;;14.00;;
57311;SDS011;43154;50.966;18.316;2023-04-19T00:10:32;26.40;;;13.50;;
57311;SDS011;43154;50.966;18.316;2023-04-19T00:16:21;29.60;;;14.10;;
57311;SDS011;43154;50.966;18.316;2023-04-19T00:19:12;28.70;;;14.50;;
57311;SDS011;43154;50.966;18.316;2023-04-19T00:22:00;31.20;;;14.90;;
57311;SDS011;43154;50.966;18.316;2023-04-19T00:24:41;31.00;;;15.10;;
57311;SDS011;43154;50.966;18.316;2023-04-19T00:27:20;34.40;;;15.80;;
57311;SDS011;43154;50.966;18.316;2023-04-19T00:30:13;31.80;;;16.00;;
57311;SDS011;43154;50.966;18.316;2023-04-19T00:32:51;35.80;;;16.70;;
57311;SDS011;43154;50.966;18.316;2023-04-19T00:35:50;33.10;;;16.20;;
57311;SDS011;43154;50.966;18.316;2023-04-19T00:38:52;36.20;;;16.80;;
57311;SDS011;43154;50.966;18.316;2023-04-19T00:41:42;33.00;;;16.70;;
57311;SDS011;43154;50.966;18.316;2023-04-19T00:44:31;36.60;;;18.30;;
57311;SDS011;43154;50.966;18.316;2023-04-19T00:47:08;35.20;;;17.80;;
57311;SDS011;43154;50.966;18.316;2023-04-19T00:49:45;36.70;;;19.30;;
57311;SDS011;43154;50.966;18.316;2023-04-19T00:52:39;37.90;;;18.60;;
57311;SDS011;43154;50.966;18.316;2023-04-19T00:55:34;38.70;;;19.30;;
57311;SDS011;43154;50.966;18.316;2023-04-19T00:58:28;38.00;;;18.80;;
57311;SDS011;43154;50.966;18.316;2023-04-19T01:01:14;36.60;;;18.20;;
57311;SDS011;43154;50.966;18.316;2023-04-19T01:04:16;39.20;;;19.60;;
57311;SDS011;43154;50.966;18.316;2023-04-19T01:06:55;38.90;;;19.00;;
57311;SDS011;43154;50.966;18.316;2023-04-19T01:09:32;35.20;;;17.30;;
57311;SDS011;43154;50.966;18.316;2023-04-19T01:12:13;36.80;;;18.80;;
57311;SDS011;43154;50.966;18.316;2023-04-19T01:15:09;37.60;;;18.40;;
57311;SDS011;43154;50.966;18.316;2023-04-19T01:18:04;33.80;;;18.10;;
57311;SDS011;43154;50.966;18.316;2023-04-19T01:20:58;36.90;;;18.60;;
57311;SDS011;43154;50.966;18.316;2023-04-19T01:23:49;35.00;;;17.50;;
57311;SDS011;43154;50.966;18.316;2023-04-19T01:27:04;36.80;;;18.50;;
57311;SDS011;43154;50.966;18.316;2023-04-19T01:29:59;35.60;;;18.80;;
57311;SDS011;43154;50.966;18.316;2023-04-19T01:32:50;37.70;;;19.50;;
57311;SDS011;43154;50.966;18.316;2023-04-19T01:35:49;34.60;;;17.00;;
57311;SDS011;43154;50.966;18.316;2023-04-19T01:38:39;40.20;;;20.20;;
57311;SDS011;43154;50.966;18.316;2023-04-19T01:41:14;42.00;;;19.60;;
57311;SDS011;43154;50.966;18.316;2023-04-19T01:43:51;38.50;;;19.10;;
57311;SDS011;43154;50.966;18.316;2023-04-19T01:49:26;38.00;;;18.60;;
57311;SDS011;43154;50.966;18.316;2023-04-19T01:52:15;38.30;;;19.40;;
57311;SDS011;43154;50.966;18.316;2023-04-19T01:54:56;36.30;;;17.40;;
57311;SDS011;43154;50.966;18.316;2023-04-19T01:57:51;31.80;;;15.60;;
57311;SDS011;43154;50.966;18.316;2023-04-19T02:00:34;35.20;;;18.60;;
57311;SDS011;43154;50.966;18.316;2023-04-19T02:03:27;33.30;;;17.20;;
57311;SDS011;43154;50.966;18.316;2023-04-19T02:06:19;36.10;;;18.40;;
57311;SDS011;43154;50.966;18.316;2023-04-19T02:09:15;37.70;;;18.10;;
57311;SDS011;43154;50.966;18.316;2023-04-19T02:11:59;36.80;;;18.80;;
57311;SDS011;43154;50.966;18.316;2023-04-19T02:14:54;36.50;;;18.70;;
57311;SDS011;43154;50.966;18.316;2023-04-19T02:20:40;40.30;;;19.40;;
57311;SDS011;43154;50.966;18.316;2023-04-19T02:23:19;40.90;;;19.30;;
57311;SDS011;43154;50.966;18.316;2023-04-19T02:26:00;37.80;;;18.60;;
57311;SDS011;43154;50.966;18.316;2023-04-19T02:28:44;41.50;;;20.50;;
57311;SDS011;43154;50.966;18.316;2023-04-19T02:31:44;41.10;;;18.90;;
57311;SDS011;43154;50.966;18.316;2023-04-19T02:34:22;39.30;;;19.00;;
57311;SDS011;43154;50.966;18.316;2023-04-19T02:37:12;34.60;;;17.60;;
57311;SDS011;43154;50.966;18.316;2023-04-19T02:40:14;38.20;;;18.90;;
57311;SDS011;43154;50.966;18.316;2023-04-19T02:42:56;40.00;;;19.40;;
57311;SDS011;43154;50.966;18.316;2023-04-19T02:48:27;44.70;;;21.50;;
57311;SDS011;43154;50.966;18.316;2023-04-19T02:51:11;47.50;;;25.10;;
57311;SDS011;43154;50.966;18.316;2023-04-19T02:54:08;45.40;;;22.40;;
57311;SDS011;43154;50.966;18.316;2023-04-19T03:00:01;47.40;;;24.60;;
57311;SDS011;43154;50.966;18.316;2023-04-19T03:02:58;46.10;;;23.90;;
57311;SDS011;43154;50.966;18.316;2023-04-19T03:05:58;46.70;;;24.00;;
57311;SDS011;43154;50.966;18.316;2023-04-19T03:11:43;43.20;;;23.70;;
57311;SDS011;43154;50.966;18.316;2023-04-19T03:14:28;44.90;;;23.10;;
57311;SDS011;43154;50.966;18.316;2023-04-19T03:17:28;41.20;;;21.00;;
57311;SDS011;43154;50.966;18.316;2023-04-19T03:20:16;43.10;;;22.30;;
57311;SDS011;43154;50.966;18.316;2023-04-19T03:22:53;41.30;;;21.60;;
57311;SDS011;43154;50.966;18.316;2023-04-19T03:25:33;38.50;;;20.10;;
57311;SDS011;43154;50.966;18.316;2023-04-19T03:28:37;41.30;;;22.00;;
57311;SDS011;43154;50.966;18.316;2023-04-19T03:37:33;35.60;;;18.00;;
57311;SDS011;43154;50.966;18.316;2023-04-19T03:40:37;37.80;;;17.10;;
57311;SDS011;43154;50.966;18.316;2023-04-19T03:43:26;34.40;;;16.80;;
57311;SDS011;43154;50.966;18.316;2023-04-19T03:46:19;32.70;;;15.90;;
57311;SDS011;43154;50.966;18.316;2023-04-19T03:52:47;31.40;;;16.30;;
57311;SDS011;43154;50.966;18.316;2023-04-19T03:55:16;35.20;;;16.90;;
57311;SDS011;43154;50.966;18.316;2023-04-19T03:57:50;32.10;;;16.10;;
57311;SDS011;43154;50.966;18.316;2023-04-19T04:00:52;35.50;;;17.70;;
57311;SDS011;43154;50.966;18.316;2023-04-19T04:03:41;36.70;;;17.80;;
57311;SDS011;43154;50.966;18.316;2023-04-19T04:06:38;37.10;;;17.50;;
57311;SDS011;43154;50.966;18.316;2023-04-19T04:09:13;38.70;;;17.80;;
57311;SDS011;43154;50.966;18.316;2023-04-19T04:11:58;34.50;;;18.30;;
57311;SDS011;43154;50.966;18.316;2023-04-19T04:14:50;36.60;;;18.00;;
57311;SDS011;43154;50.966;18.316;2023-04-19T04:17:33;35.10;;;17.30;;
57311;SDS011;43154;50.966;18.316;2023-04-19T04:20:11;33.00;;;16.50;;
57311;SDS011;43154;50.966;18.316;2023-04-19T04:23:00;39.70;;;17.70;;
57311;SDS011;43154;50.966;18.316;2023-04-19T04:25:33;40.10;;;18.00;;
57311;SDS011;43154;50.966;18.316;2023-04-19T04:28:13;32.20;;;17.40;;
57311;SDS011;43154;50.966;18.316;2023-04-19T04:30:52;37.20;;;17.40;;
57311;SDS011;43154;50.966;18.316;2023-04-19T04:33:31;33.60;;;17.30;;
57311;SDS011;43154;50.966;18.316;2023-04-19T04:36:45;34.10;;;15.40;;
57311;SDS011;43154;50.966;18.316;2023-04-19T04:39:42;36.60;;;16.30;;
57311;SDS011;43154;50.966;18.316;2023-04-19T04:42:52;35.70;;;16.50;;
57311;SDS011;43154;50.966;18.316;2023-04-19T04:45:59;33.60;;;17.70;;
57311;SDS011;43154;50.966;18.316;2023-04-19T04:49:09;46.00;;;20.50;;
57311;SDS011;43154;50.966;18.316;2023-04-19T04:52:01;38.30;;;18.80;;
57311;SDS011;43154;50.966;18.316;2023-04-19T04:54:37;37.50;;;17.70;;
57311;SDS011;43154;50.966;18.316;2023-04-19T04:57:11;39.80;;;17.00;;
57311;SDS011;43154;50.966;18.316;2023-04-19T05:00:17;37.60;;;16.30;;
57311;SDS011;43154;50.966;18.316;2023-04-19T05:02:54;36.90;;;18.50;;
57311;SDS011;43154;50.966;18.316;2023-04-19T05:08:32;33.60;;;16.90;;
57311;SDS011;43154;50.966;18.316;2023-04-19T05:11:30;35.00;;;16.70;;
57311;SDS011;43154;50.966;18.316;2023-04-19T05:14:24;37.60;;;16.20;;
57311;SDS011;43154;50.966;18.316;2023-04-19T05:17:05;37.80;;;16.50;;
57311;SDS011;43154;50.966;18.316;2023-04-19T05:20:09;36.40;;;17.10;;
57311;SDS011;43154;50.966;18.316;2023-04-19T05:22:49;32.70;;;16.40;;
57311;SDS011;43154;50.966;18.316;2023-04-19T05:26:03;34.50;;;17.50;;
57311;SDS011;43154;50.966;18.316;2023-04-19T05:28:46;37.80;;;17.30;;
57311;SDS011;43154;50.966;18.316;2023-04-19T05:32:04;37.60;;;18.50;;
57311;SDS011;43154;50.966;18.316;2023-04-19T05:34:40;39.60;;;19.70;;
57311;SDS011;43154;50.966;18.316;2023-04-19T05:37:16;38.60;;;18.50;;
57311;SDS011;43154;50.966;18.316;2023-04-19T05:39:48;38.50;;;19.10;;
57311;SDS011;43154;50.966;18.316;2023-04-19T05:43:00;34.70;;;16.30;;
57311;SDS011;43154;50.966;18.316;2023-04-19T05:45:37;35.10;;;15.90;;
57311;SDS011;43154;50.966;18.316;2023-04-19T05:48:08;32.60;;;15.50;;
57311;SDS011;43154;50.966;18.316;2023-04-19T05:51:13;29.60;;;14.70;;
57311;SDS011;43154;50.966;18.316;2023-04-19T05:54:09;32.40;;;15.60;;
57311;SDS011;43154;50.966;18.316;2023-04-19T05:56:49;29.10;;;14.70;;
57311;SDS011;43154;50.966;18.316;2023-04-19T05:59:39;31.00;;;14.30;;
57311;SDS011;43154;50.966;18.316;2023-04-19T06:02:30;30.30;;;14.80;;
57311;SDS011;43154;50.966;18.316;2023-04-19T06:05:13;30.40;;;14.70;;
57311;SDS011;43154;50.966;18.316;2023-04-19T06:08:25;33.00;;;15.60;;
57311;SDS011;43154;50.966;18.316;2023-04-19T06:10:58;30.80;;;14.30;;
57311;SDS011;43154;50.966;18.316;2023-04-19T06:13:40;35.50;;;15.70;;
57311;SDS011;43154;50.966;18.316;2023-04-19T06:16:14;32.80;;;16.60;;
57311;SDS011;43154;50.966;18.316;2023-04-19T06:18:55;39.30;;;15.50;;
57311;SDS011;43154;50.966;18.316;2023-04-19T06:21:43;31.70;;;16.00;;
57311;SDS011;43154;50.966;18.316;2023-04-19T06:24:34;35.80;;;16.80;;
57311;SDS011;43154;50.966;18.316;2023-04-19T06:27:16;35.80;;;16.50;;
57311;SDS011;43154;50.966;18.316;2023-04-19T06:36:42;38.50;;;17.70;;
57311;SDS011;43154;50.966;18.316;2023-04-19T06:39:51;37.30;;;18.40;;
57311;SDS011;43154;50.966;18.316;2023-04-19T06:43:08;35.40;;;17.60;;
57311;SDS011;43154;50.966;18.316;2023-04-19T06:46:27;34.80;;;18.00;;
57311;SDS011;43154;50.966;18.316;2023-04-19T06:49:50;40.80;;;19.80;;
57311;SDS011;43154;50.966;18.316;2023-04-19T06:56:48;34.30;;;16.30;;
57311;SDS011;43154;50.966;18.316;2023-04-19T06:59:30;36.70;;;17.60;;
57311;SDS011;43154;50.966;18.316;2023-04-19T07:06:09;31.40;;;15.80;;
57311;SDS011;43154;50.966;18.316;2023-04-19T07:11:56;25.10;;;13.80;;
57311;SDS011;43154;50.966;18.316;2023-04-19T07:18:12;26.30;;;13.80;;
57311;SDS011;43154;50.966;18.316;2023-04-19T07:21:16;26.50;;;13.40;;
57311;SDS011;43154;50.966;18.316;2023-04-19T07:31:25;26.80;;;13.50;;
57311;SDS011;43154;50.966;18.316;2023-04-19T07:34:42;27.40;;;14.10;;
57311;SDS011;43154;50.966;18.316;2023-04-19T07:38:04;25.70;;;13.60;;
57311;SDS011;43154;50.966;18.316;2023-04-19T07:41:01;26.80;;;13.50;;
57311;SDS011;43154;50.966;18.316;2023-04-19T07:47:16;31.00;;;15.40;;
57311;SDS011;43154;50.966;18.316;2023-04-19T07:50:05;30.20;;;14.80;;
57311;SDS011;43154;50.966;18.316;2023-04-19T07:52:58;24.70;;;13.30;;
57311;SDS011;43154;50.966;18.316;2023-04-19T07:56:03;26.60;;;13.00;;
57311;SDS011;43154;50.966;18.316;2023-04-19T07:59:18;25.80;;;12.20;;
57311;SDS011;43154;50.966;18.316;2023-04-19T08:02:33;29.10;;;14.70;;
57311;SDS011;43154;50.966;18.316;2023-04-19T08:08:55;26.70;;;13.50;;
57311;SDS011;43154;50.966;18.316;2023-04-19T08:12:21;27.80;;;14.80;;
57311;SDS011;43154;50.966;18.316;2023-04-19T08:22:09;32.90;;;16.50;;
57311;SDS011;43154;50.966;18.316;2023-04-19T08:24:34;36.00;;;17.50;;
57311;SDS011;43154;50.966;18.316;2023-04-19T08:27:00;34.40;;;17.50;;
57311;SDS011;43154;50.966;18.316;2023-04-19T08:29:26;34.60;;;17.80;;
57311;SDS011;43154;50.966;18.316;2023-04-19T08:31:51;37.20;;;19.90;;
57311;SDS011;43154;50.966;18.316;2023-04-19T08:34:17;35.90;;;19.10;;
57311;SDS011;43154;50.966;18.316;2023-04-19T08:36:42;40.00;;;19.10;;
57311;SDS011;43154;50.966;18.316;2023-04-19T08:39:08;39.60;;;19.10;;
57311;SDS011;43154;50.966;18.316;2023-04-19T08:41:34;56.40;;;25.90;;
57311;SDS011;43154;50.966;18.316;2023-04-19T08:44:01;41.20;;;20.10;;
57311;SDS011;43154;50.966;18.316;2023-04-19T08:46:27;31.70;;;16.20;;
57311;SDS011;43154;50.966;18.316;2023-04-19T08:48:55;45.50;;;19.00;;
57311;SDS011;43154;50.966;18.316;2023-04-19T09:23:52;56.00;;;28.10;;
57311;SDS011;43154;50.966;18.316;2023-04-19T09:26:18;56.20;;;26.70;;
57311;SDS011;43154;50.966;18.316;2023-04-19T09:31:28;51.00;;;23.60;;
57311;SDS011;43154;50.966;18.316;2023-04-19T09:33:57;54.10;;;27.50;;
57311;SDS011;43154;50.966;18.316;2023-04-19T09:36:40;56.90;;;27.80;;
57311;SDS011;43154;50.966;18.316;2023-04-19T09:39:09;59.50;;;28.70;;
57311;SDS011;43154;50.966;18.316;2023-04-19T09:41:51;56.20;;;27.80;;
57311;SDS011;43154;50.966;18.316;2023-04-19T09:44:18;51.40;;;26.40;;
57311;SDS011;43154;50.966;18.316;2023-04-19T09:46:45;52.40;;;26.40;;
57311;SDS011;43154;50.966;18.316;2023-04-19T09:51:44;51.10;;;26.70;;
57311;SDS011;43154;50.966;18.316;2023-04-19T09:54:12;47.10;;;25.30;;
57311;SDS011;43154;50.966;18.316;2023-04-19T09:56:43;50.70;;;25.40;;
57311;SDS011;43154;50.966;18.316;2023-04-19T09:59:13;47.10;;;24.40;;
57311;SDS011;43154;50.966;18.316;2023-04-19T10:01:46;47.10;;;24.30;;
57311;SDS011;43154;50.966;18.316;2023-04-19T10:04:13;41.60;;;21.70;;
57311;SDS011;43154;50.966;18.316;2023-04-19T10:06:50;43.30;;;22.80;;
57311;SDS011;43154;50.966;18.316;2023-04-19T10:09:17;42.60;;;22.80;;
57311;SDS011;43154;50.966;18.316;2023-04-19T10:11:48;42.40;;;22.30;;
57311;SDS011;43154;50.966;18.316;2023-04-19T10:14:15;44.20;;;22.90;;
57311;SDS011;43154;50.966;18.316;2023-04-19T10:16:46;43.20;;;22.60;;
57311;SDS011;43154;50.966;18.316;2023-04-19T10:19:18;42.60;;;23.10;;
57311;SDS011;43154;50.966;18.316;2023-04-19T10:21:48;43.00;;;23.00;;
57311;SDS011;43154;50.966;18.316;2023-04-19T10:24:14;40.30;;;22.70;;
57311;SDS011;43154;50.966;18.316;2023-04-19T10:32:18;44.20;;;23.00;;
57311;SDS011;43154;50.966;18.316;2023-04-19T10:34:44;44.00;;;23.10;;
57311;SDS011;43154;50.966;18.316;2023-04-19T10:37:14;41.20;;;22.20;;
57311;SDS011;43154;50.966;18.316;2023-04-19T10:39:41;42.40;;;23.30;;
57311;SDS011;43154;50.966;18.316;2023-04-19T10:42:08;49.70;;;27.10;;
57311;SDS011;43154;50.966;18.316;2023-04-19T10:44:34;59.30;;;29.50;;
57311;SDS011;43154;50.966;18.316;2023-04-19T10:47:07;49.70;;;27.90;;
57311;SDS011;43154;50.966;18.316;2023-04-19T10:49:45;51.10;;;28.20;;
57311;SDS011;43154;50.966;18.316;2023-04-19T10:52:27;52.00;;;28.60;;
57311;SDS011;43154;50.966;18.316;2023-04-19T10:54:56;60.40;;;31.50;;
57311;SDS011;43154;50.966;18.316;2023-04-19T10:57:26;59.00;;;31.70;;
57311;SDS011;43154;50.966;18.316;2023-04-19T11:00:16;59.10;;;31.20;;
57311;SDS011;43154;50.966;18.316;2023-04-19T11:02:52;59.80;;;32.30;;
57311;SDS011;43154;50.966;18.316;2023-04-19T11:05:21;63.60;;;32.80;;
57311;SDS011;43154;50.966;18.316;2023-04-19T11:07:47;57.50;;;31.30;;
57311;SDS011;43154;50.966;18.316;2023-04-19T11:10:17;70.10;;;36.50;;
57311;SDS011;43154;50.966;18.316;2023-04-19T11:12:53;66.70;;;32.60;;
57311;SDS011;43154;50.966;18.316;2023-04-19T11:15:21;54.80;;;30.80;;
57311;SDS011;43154;50.966;18.316;2023-04-19T11:17:51;53.50;;;28.20;;
57311;SDS011;43154;50.966;18.316;2023-04-19T11:20:21;51.50;;;29.00;;
57311;SDS011;43154;50.966;18.316;2023-04-19T11:22:48;54.70;;;29.20;;
57311;SDS011;43154;50.966;18.316;2023-04-19T11:25:18;60.10;;;31.80;;
57311;SDS011;43154;50.966;18.316;2023-04-19T11:27:50;53.60;;;28.80;;
57311;SDS011;43154;50.966;18.316;2023-04-19T11:30:18;54.10;;;29.00;;
57311;SDS011;43154;50.966;18.316;2023-04-19T11:37:45;52.30;;;27.40;;
57311;SDS011;43154;50.966;18.316;2023-04-19T11:40:15;59.00;;;29.90;;
57311;SDS011;43154;50.966;18.316;2023-04-19T11:42:43;51.80;;;26.90;;
57311;SDS011;43154;50.966;18.316;2023-04-19T11:45:10;52.00;;;27.20;;
57311;SDS011;43154;50.966;18.316;2023-04-19T11:47:48;55.60;;;29.60;;
57311;SDS011;43154;50.966;18.316;2023-04-19T11:55:54;59.90;;;30.90;;
57311;SDS011;43154;50.966;18.316;2023-04-19T12:01:06;47.90;;;25.90;;
57311;SDS011;43154;50.966;18.316;2023-04-19T12:03:34;47.20;;;25.80;;
57311;SDS011;43154;50.966;18.316;2023-04-19T12:06:04;47.40;;;27.10;;
57311;SDS011;43154;50.966;18.316;2023-04-19T12:08:35;48.40;;;27.20;;
57311;SDS011;43154;50.966;18.316;2023-04-19T12:11:02;57.00;;;30.50;;
57311;SDS011;43154;50.966;18.316;2023-04-19T12:13:29;49.90;;;26.90;;
57311;SDS011;43154;50.966;18.316;2023-04-19T12:15:58;52.00;;;28.60;;
57311;SDS011;43154;50.966;18.316;2023-04-19T12:18:26;52.50;;;30.10;;
57311;SDS011;43154;50.966;18.316;2023-04-19T12:20:53;49.80;;;27.80;;
57311;SDS011;43154;50.966;18.316;2023-04-19T12:23:19;50.40;;;28.70;;
57311;SDS011;43154;50.966;18.316;2023-04-19T12:25:46;53.80;;;29.60;;
57311;SDS011;43154;50.966;18.316;2023-04-19T12:28:13;46.30;;;26.90;;
57311;SDS011;43154;50.966;18.316;2023-04-19T12:30:46;47.00;;;26.70;;
57311;SDS011;43154;50.966;18.316;2023-04-19T12:33:11;47.50;;;27.40;;
57311;SDS011;43154;50.966;18.316;2023-04-19T12:35:40;48.90;;;28.20;;
57311;SDS011;43154;50.966;18.316;2023-04-19T12:38:07;45.10;;;26.50;;
57311;SDS011;43154;50.966;18.316;2023-04-19T12:40:36;44.10;;;26.00;;
57311;SDS011;43154;50.966;18.316;2023-04-19T12:43:02;42.50;;;24.20;;
57311;SDS011;43154;50.966;18.316;2023-04-19T12:45:27;43.30;;;25.40;;
57311;SDS011;43154;50.966;18.316;2023-04-19T12:47:54;46.00;;;26.30;;
57311;SDS011;43154;50.966;18.316;2023-04-19T12:50:22;51.60;;;27.30;;
57311;SDS011;43154;50.966;18.316;2023-04-19T12:52:48;46.00;;;26.00;;
57311;SDS011;43154;50.966;18.316;2023-04-19T12:55:16;53.40;;;29.50;;
57311;SDS011;43154;50.966;18.316;2023-04-19T12:57:42;45.10;;;25.70;;
57311;SDS011;43154;50.966;18.316;2023-04-19T13:00:08;42.90;;;24.70;;
57311;SDS011;43154;50.966;18.316;2023-04-19T13:02:35;57.90;;;30.20;;
57311;SDS011;43154;50.966;18.316;2023-04-19T13:05:01;81.30;;;39.00;;
57311;SDS011;43154;50.966;18.316;2023-04-19T13:07:29;66.70;;;33.70;;
57311;SDS011;43154;50.966;18.316;2023-04-19T13:09:55;70.10;;;36.20;;
57311;SDS011;43154;50.966;18.316;2023-04-19T13:12:21;67.50;;;35.70;;
57311;SDS011;43154;50.966;18.316;2023-04-19T13:14:48;53.20;;;28.10;;
57311;SDS011;43154;50.966;18.316;2023-04-19T13:17:18;47.60;;;26.60;;
57311;SDS011;43154;50.966;18.316;2023-04-19T13:19:48;69.00;;;35.60;;
57311;SDS011;43154;50.966;18.316;2023-04-19T13:22:14;48.70;;;27.10;;
57311;SDS011;43154;50.966;18.316;2023-04-19T13:24:40;45.10;;;25.60;;
57311;SDS011;43154;50.966;18.316;2023-04-19T13:27:08;57.90;;;31.30;;
57311;SDS011;43154;50.966;18.316;2023-04-19T13:29:34;55.50;;;30.10;;
57311;SDS011;43154;50.966;18.316;2023-04-19T13:32:00;63.30;;;33.10;;
57311;SDS011;43154;50.966;18.316;2023-04-19T13:34:30;48.60;;;27.40;;
57311;SDS011;43154;50.966;18.316;2023-04-19T13:36:55;48.40;;;29.30;;
57311;SDS011;43154;50.966;18.316;2023-04-19T13:39:22;47.80;;;28.50;;
57311;SDS011;43154;50.966;18.316;2023-04-19T13:41:48;44.30;;;25.60;;
57311;SDS011;43154;50.966;18.316;2023-04-19T13:44:14;47.50;;;28.30;;
57311;SDS011;43154;50.966;18.316;2023-04-19T13:46:40;52.10;;;30.80;;
57311;SDS011;43154;50.966;18.316;2023-04-19T13:49:06;54.00;;;31.50;;
57311;SDS011;43154;50.966;18.316;2023-04-19T13:51:31;50.40;;;30.40;;
57311;SDS011;43154;50.966;18.316;2023-04-19T13:54:00;57.40;;;31.70;;
57311;SDS011;43154;50.966;18.316;2023-04-19T13:56:26;49.40;;;29.80;;
57311;SDS011;43154;50.966;18.316;2023-04-19T13:58:52;56.10;;;32.40;;
57311;SDS011;43154;50.966;18.316;2023-04-19T14:01:20;66.70;;;35.80;;
57311;SDS011;43154;50.966;18.316;2023-04-19T14:03:47;55.70;;;31.10;;
57311;SDS011;43154;50.966;18.316;2023-04-19T14:06:13;59.10;;;33.10;;
57311;SDS011;43154;50.966;18.316;2023-04-19T14:08:39;45.40;;;26.50;;
57311;SDS011;43154;50.966;18.316;2023-04-19T14:11:04;47.40;;;25.90;;
57311;SDS011;43154;50.966;18.316;2023-04-19T14:13:30;45.00;;;26.30;;
57311;SDS011;43154;50.966;18.316;2023-04-19T14:15:56;42.00;;;24.80;;
57311;SDS011;43154;50.966;18.316;2023-04-19T14:18:22;44.80;;;26.00;;
57311;SDS011;43154;50.966;18.316;2023-04-19T14:20:48;46.90;;;26.70;;
57311;SDS011;43154;50.966;18.316;2023-04-19T14:23:16;51.00;;;28.60;;
57311;SDS011;43154;50.966;18.316;2023-04-19T14:25:42;46.30;;;27.60;;
57311;SDS011;43154;50.966;18.316;2023-04-19T14:28:08;45.60;;;26.50;;
57311;SDS011;43154;50.966;18.316;2023-04-19T14:30:37;48.60;;;27.80;;
57311;SDS011;43154;50.966;18.316;2023-04-19T14:33:03;47.30;;;27.20;;
57311;SDS011;43154;50.966;18.316;2023-04-19T14:35:29;57.20;;;30.90;;
57311;SDS011;43154;50.966;18.316;2023-04-19T14:37:55;44.20;;;27.20;;
57311;SDS011;43154;50.966;18.316;2023-04-19T14:40:21;48.20;;;27.90;;
57311;SDS011;43154;50.966;18.316;2023-04-19T14:42:47;49.10;;;27.20;;
57311;SDS011;43154;50.966;18.316;2023-04-19T14:45:13;51.80;;;29.00;;
57311;SDS011;43154;50.966;18.316;2023-04-19T14:47:39;50.50;;;28.00;;
57311;SDS011;43154;50.966;18.316;2023-04-19T14:50:05;48.30;;;27.60;;
57311;SDS011;43154;50.966;18.316;2023-04-19T14:52:32;51.10;;;28.60;;
57311;SDS011;43154;50.966;18.316;2023-04-19T14:54:57;52.40;;;28.80;;
57311;SDS011;43154;50.966;18.316;2023-04-19T14:57:25;54.90;;;29.90;;
57311;SDS011;43154;50.966;18.316;2023-04-19T14:59:54;55.60;;;31.60;;
57311;SDS011;43154;50.966;18.316;2023-04-19T15:02:25;52.70;;;29.60;;
57311;SDS011;43154;50.966;18.316;2023-04-19T15:04:52;61.20;;;32.30;;
57311;SDS011;43154;50.966;18.316;2023-04-19T15:07:18;63.10;;;34.30;;
57311;SDS011;43154;50.966;18.316;2023-04-19T15:09:44;58.00;;;32.60;;
57311;SDS011;43154;50.966;18.316;2023-04-19T15:12:10;60.80;;;33.90;;
57311;SDS011;43154;50.966;18.316;2023-04-19T15:14:37;56.70;;;33.10;;
57311;SDS011;43154;50.966;18.316;2023-04-19T15:17:03;56.60;;;32.50;;
57311;SDS011;43154;50.966;18.316;2023-04-19T15:19:30;67.20;;;33.20;;
57311;SDS011;43154;50.966;18.316;2023-04-19T15:21:56;60.90;;;33.60;;
57311;SDS011;43154;50.966;18.316;2023-04-19T15:24:22;59.70;;;32.80;;
57311;SDS011;43154;50.966;18.316;2023-04-19T15:26:48;55.20;;;30.20;;
57311;SDS011;43154;50.966;18.316;2023-04-19T15:29:14;61.80;;;32.60;;
57311;SDS011;43154;50.966;18.316;2023-04-19T15:31:40;65.10;;;36.70;;
57311;SDS011;43154;50.966;18.316;2023-04-19T15:34:05;74.80;;;39.90;;
57311;SDS011;43154;50.966;18.316;2023-04-19T15:36:31;78.70;;;39.30;;
57311;SDS011;43154;50.966;18.316;2023-04-19T15:38:57;64.50;;;34.00;;
57311;SDS011;43154;50.966;18.316;2023-04-19T15:41:23;59.50;;;33.50;;
57311;SDS011;43154;50.966;18.316;2023-04-19T15:43:49;62.60;;;33.60;;
57311;SDS011;43154;50.966;18.316;2023-04-19T15:46:15;73.40;;;38.70;;
57311;SDS011;43154;50.966;18.316;2023-04-19T15:48:42;59.40;;;33.00;;
57311;SDS011;43154;50.966;18.316;2023-04-19T15:51:12;59.90;;;33.90;;
57311;SDS011;43154;50.966;18.316;2023-04-19T15:53:39;64.90;;;34.00;;
57311;SDS011;43154;50.966;18.316;2023-04-19T15:56:08;65.40;;;33.70;;
57311;SDS011;43154;50.966;18.316;2023-04-19T15:58:35;78.40;;;39.30;;
57311;SDS011;43154;50.966;18.316;2023-04-19T16:01:01;68.40;;;38.00;;
57311;SDS011;43154;50.966;18.316;2023-04-19T16:03:27;59.40;;;32.90;;
57311;SDS011;43154;50.966;18.316;2023-04-19T16:05:52;75.70;;;40.20;;
57311;SDS011;43154;50.966;18.316;2023-04-19T16:08:19;69.10;;;34.50;;
57311;SDS011;43154;50.966;18.316;2023-04-19T16:10:46;61.50;;;33.70;;
57311;SDS011;43154;50.966;18.316;2023-04-19T16:13:12;67.70;;;35.20;;
57311;SDS011;43154;50.966;18.316;2023-04-19T16:15:39;64.10;;;32.90;;
57311;SDS011;43154;50.966;18.316;2023-04-19T16:18:08;63.40;;;32.90;;
57311;SDS011;43154;50.966;18.316;2023-04-19T16:20:35;83.00;;;37.80;;
57311;SDS011;43154;50.966;18.316;2023-04-19T16:23:02;61.50;;;33.50;;
57311;SDS011;43154;50.966;18.316;2023-04-19T16:25:28;72.40;;;36.40;;
57311;SDS011;43154;50.966;18.316;2023-04-19T16:27:54;60.20;;;32.20;;
57311;SDS011;43154;50.966;18.316;2023-04-19T16:30:20;57.10;;;31.30;;
57311;SDS011;43154;50.966;18.316;2023-04-19T16:32:48;105.60;;;47.20;;
57311;SDS011;43154;50.966;18.316;2023-04-19T16:35:14;81.80;;;38.40;;
57311;SDS011;43154;50.966;18.316;2023-04-19T16:37:40;57.50;;;30.70;;
57311;SDS011;43154;50.966;18.316;2023-04-19T16:40:07;54.40;;;29.50;;
57311;SDS011;43154;50.966;18.316;2023-04-19T16:42:35;52.20;;;29.80;;
57311;SDS011;43154;50.966;18.316;2023-04-19T16:45:02;71.70;;;35.20;;
57311;SDS011;43154;50.966;18.316;2023-04-19T16:47:28;59.80;;;32.00;;
57311;SDS011;43154;50.966;18.316;2023-04-19T16:49:58;51.60;;;29.60;;
57311;SDS011;43154;50.966;18.316;2023-04-19T16:52:25;57.60;;;31.10;;
57311;SDS011;43154;50.966;18.316;2023-04-19T16:54:51;56.50;;;31.20;;
57311;SDS011;43154;50.966;18.316;2023-04-19T16:57:17;58.70;;;30.50;;
57311;SDS011;43154;50.966;18.316;2023-04-19T16:59:44;66.30;;;33.90;;
57311;SDS011;43154;50.966;18.316;2023-04-19T17:02:11;60.70;;;32.20;;
57311;SDS011;43154;50.966;18.316;2023-04-19T17:04:36;65.40;;;35.40;;
57311;SDS011;43154;50.966;18.316;2023-04-19T17:07:02;68.80;;;35.50;;
57311;SDS011;43154;50.966;18.316;2023-04-19T17:09:28;62.80;;;34.30;;
57311;SDS011;43154;50.966;18.316;2023-04-19T17:11:54;66.00;;;34.20;;
57311;SDS011;43154;50.966;18.316;2023-04-19T17:14:21;65.50;;;34.40;;
57311;SDS011;43154;50.966;18.316;2023-04-19T17:16:47;65.00;;;34.70;;
57311;SDS011;43154;50.966;18.316;2023-04-19T17:19:13;64.40;;;33.70;;
57311;SDS011;43154;50.966;18.316;2023-04-19T17:21:40;59.00;;;32.70;;